Time;durP1;ratioP1;P1;durP2;ratioP2;P2;SDS_P1;SDS_P2;PMS_P1;PMS_P2;Temp;Humidity;BMP_temperature;BMP_pressure;BME280_temperature;BME280_humidity;BME280_pressure;Samples;Min_cycle;Max_cycle;Signal;HPM_P1;HPM_P2
2022/09/25 00:01:10;;;;;;;;;;;17.50;93.60;;;;;;5014983;28;19905;-23
2022/09/25 00:03:36;;;;;;;;;;;17.50;93.60;;;;;;5015051;28;19905;-24
2022/09/25 00:06:02;;;;;;;;;;;17.50;93.60;;;;;;5013777;28;20382;-23
2022/09/25 00:08:27;;;;;;;;;;;17.50;93.60;;;;;;5015066;28;19912;-23
2022/09/25 00:10:53;;;;;;;;;;;17.50;93.60;;;;;;5014937;28;20374;-23
2022/09/25 00:13:19;;;;;;;;;;;17.50;93.60;;;;;;5015214;28;20401;-23
2022/09/25 00:15:50;;;;;;;;;;;17.50;93.60;;;;;;5015330;28;19906;-23
2022/09/25 00:18:16;;;;;;;;;;;17.50;93.60;;;;;;5015584;28;19906;-23
2022/09/25 00:20:42;;;;;;;;;;;17.50;93.60;;;;;;5015198;28;20271;-23
2022/09/25 00:23:08;;;;;;;;;;;17.50;93.60;;;;;;5015516;28;19947;-23
2022/09/25 00:25:34;;;;;;;;;;;17.50;93.60;;;;;;5015015;28;19906;-23
2022/09/25 00:27:59;;;;;;;;;;;17.50;93.60;;;;;;5015306;28;20331;-23
2022/09/25 00:30:25;;;;;;;;;;;17.50;93.60;;;;;;5014561;28;20481;-23
2022/09/25 00:32:51;;;;;;;;;;;17.50;93.70;;;;;;5014443;28;20299;-23
2022/09/25 00:35:16;;;;;;;;;;;17.50;93.70;;;;;;5014872;28;20339;-24
2022/09/25 00:37:42;;;;;;;;;;;17.50;93.60;;;;;;5012989;28;20378;-24
2022/09/25 00:40:07;;;;;;;;;;;17.50;94.00;;;;;;5014310;28;20274;-24
2022/09/25 00:42:35;;;;;;;;;;;17.40;93.60;;;;;;5014260;28;19906;-24
2022/09/25 00:45:14;;;;;;;;;;;17.50;93.60;;;;;;5014258;28;20351;-24
2022/09/25 00:47:59;;;;;;;;;;;17.50;93.70;;;;;;5014204;28;19905;-24
2022/09/25 00:50:37;;;;;;;;;;;17.50;93.70;;;;;;5013827;28;19956;-24
2022/09/25 00:53:10;;;;;;;;;;;17.50;93.60;;;;;;5014549;28;19909;-23
2022/09/25 00:55:36;;;;;;;;;;;17.50;93.60;;;;;;5013880;28;19988;-23
2022/09/25 00:58:02;;;;;;;;;;;17.50;93.60;;;;;;5014160;28;19967;-23
2022/09/25 01:00:28;;;;;;;;;;;17.50;93.70;;;;;;5012402;28;19992;-23
2022/09/25 01:02:55;;;;;;;;;;;17.50;93.60;;;;;;5013905;28;19905;-23
2022/09/25 01:05:23;;;;;;;;;;;17.50;93.70;;;;;;5013910;28;19945;-23
2022/09/25 01:07:50;;;;;;;;;;;17.40;93.60;;;;;;5013094;28;19944;-23
2022/09/25 01:10:17;;;;;;;;;;;17.50;93.60;;;;;;5013827;28;19909;-23
2022/09/25 01:12:44;;;;;;;;;;;17.50;93.70;;;;;;5013740;28;20008;-23
2022/09/25 01:15:11;;;;;;;;;;;17.50;93.70;;;;;;5014226;28;20259;-23
2022/09/25 01:17:37;;;;;;;;;;;17.50;93.60;;;;;;5013767;28;19910;-23
2022/09/25 01:20:02;;;;;;;;;;;17.40;93.60;;;;;;5013425;28;20391;-23
2022/09/25 01:22:44;;;;;;;;;;;17.50;93.70;;;;;;5014056;28;20007;-23
2022/09/25 01:25:13;;;;;;;;;;;17.50;93.70;;;;;;5013551;28;19989;-23
2022/09/25 01:27:48;;;;;;;;;;;17.50;93.70;;;;;;5013495;28;19906;-23
2022/09/25 01:30:14;;;;;;;;;;;17.50;93.70;;;;;;5013209;28;19996;-23
2022/09/25 01:32:42;;;;;;;;;;;17.50;93.70;;;;;;5013250;28;20389;-24
2022/09/25 01:35:08;;;;;;;;;;;17.50;93.70;;;;;;5013317;28;19905;-23
2022/09/25 01:37:39;;;;;;;;;;;17.50;93.70;;;;;;5013223;28;20442;-23
2022/09/25 01:40:08;;;;;;;;;;;17.40;93.70;;;;;;5012930;28;19905;-23
2022/09/25 01:43:06;;;;;;;;;;;17.50;93.70;;;;;;5011926;28;20402;-23
2022/09/25 01:45:42;;;;;;;;;;;17.50;93.70;;;;;;5001183;28;19909;-23
2022/09/25 01:48:09;;;;;;;;;;;17.40;93.70;;;;;;5013087;28;19910;-23
2022/09/25 01:50:41;;;;;;;;;;;17.40;93.80;;;;;;5012736;28;19910;-23
2022/09/25 01:53:09;;;;;;;;;;;17.40;93.70;;;;;;5013052;28;19910;-23
2022/09/25 01:55:40;;;;;;;;;;;17.40;93.70;;;;;;5012977;28;19905;-23
2022/09/25 01:58:13;;;;;;;;;;;17.40;93.70;;;;;;5011676;28;19905;-23
2022/09/25 02:00:40;;;;;;;;;;;17.40;93.70;;;;;;5012746;28;20370;-23
2022/09/25 02:03:13;;;;;;;;;;;17.40;93.70;;;;;;5012894;28;20008;-23
2022/09/25 02:05:47;;;;;;;;;;;17.40;93.80;;;;;;5012877;28;19905;-23
2022/09/25 02:08:34;;;;;;;;;;;17.40;93.70;;;;;;5012753;28;19959;-23
2022/09/25 02:11:01;;;;;;;;;;;17.40;93.80;;;;;;5012898;28;20282;-23
2022/09/25 02:13:32;;;;;;;;;;;17.40;93.70;;;;;;5012755;28;19913;-23
2022/09/25 02:16:03;;;;;;;;;;;17.40;93.80;;;;;;5012870;28;19912;-23
2022/09/25 02:21:31;;;;;;;;;;;17.40;93.80;;;;;;5012481;28;19914;-23
2022/09/25 02:23:56;;;;;;;;;;;17.40;93.80;;;;;;5012631;28;19959;-23
2022/09/25 02:26:27;;;;;;;;;;;17.40;93.80;;;;;;5012775;28;19906;-23
2022/09/25 02:28:52;;;;;;;;;;;17.40;93.70;;;;;;5012559;28;20371;-23
2022/09/25 02:31:20;;;;;;;;;;;17.40;93.70;;;;;;5012969;28;19913;-23
2022/09/25 02:33:45;;;;;;;;;;;17.40;93.70;;;;;;5012401;28;20337;-23
2022/09/25 02:36:18;;;;;;;;;;;17.40;93.70;;;;;;5012931;28;20000;-23
2022/09/25 02:38:44;;;;;;;;;;;17.40;93.70;;;;;;5012525;28;19976;-23
2022/09/25 02:41:09;;;;;;;;;;;17.40;93.80;;;;;;5012691;28;19905;-23
2022/09/25 02:43:44;;;;;;;;;;;17.40;93.80;;;;;;5012821;28;20382;-23
2022/09/25 02:46:28;;;;;;;;;;;17.40;93.80;;;;;;5012829;28;19912;-23
2022/09/25 02:48:58;;;;;;;;;;;17.40;93.80;;;;;;5012566;28;19955;-23
2022/09/25 02:51:26;;;;;;;;;;;17.40;93.80;;;;;;5012259;28;19921;-23
2022/09/25 02:54:04;;;;;;;;;;;17.40;93.80;;;;;;5010993;28;20081;-24
2022/09/25 02:56:49;;;;;;;;;;;17.40;93.80;;;;;;5012339;28;20351;-24
2022/09/25 02:59:21;;;;;;;;;;;17.40;93.80;;;;;;5008101;28;19905;-24
2022/09/25 03:01:48;;;;;;;;;;;17.40;93.80;;;;;;5012224;28;20344;-24
2022/09/25 03:04:15;;;;;;;;;;;17.40;93.80;;;;;;5012281;28;19906;-24
2022/09/25 03:06:41;;;;;;;;;;;17.40;93.80;;;;;;5012224;28;20317;-24
2022/09/25 03:09:07;;;;;;;;;;;17.40;93.80;;;;;;5011938;28;20358;-24
2022/09/25 03:11:35;;;;;;;;;;;17.30;93.80;;;;;;5012154;28;19905;-24
2022/09/25 03:14:02;;;;;;;;;;;17.40;93.80;;;;;;5012165;28;19916;-24
2022/09/25 03:16:33;;;;;;;;;;;17.40;93.80;;;;;;5012238;28;19941;-24
2022/09/25 03:18:59;;;;;;;;;;;17.40;93.80;;;;;;5011990;28;19905;-24
2022/09/25 03:21:25;;;;;;;;;;;17.40;93.80;;;;;;5011964;28;19912;-24
2022/09/25 03:23:50;;;;;;;;;;;17.40;93.80;;;;;;5012096;28;19996;-24
2022/09/25 03:26:16;;;;;;;;;;;17.30;93.80;;;;;;5012155;28;20362;-24
2022/09/25 03:28:41;;;;;;;;;;;17.30;93.80;;;;;;5012050;28;19964;-24
2022/09/25 03:31:09;;;;;;;;;;;17.40;93.80;;;;;;5013622;28;19906;-24
2022/09/25 03:33:36;;;;;;;;;;;17.30;93.80;;;;;;5015500;28;19962;-24
2022/09/25 03:36:02;;;;;;;;;;;17.30;93.80;;;;;;5014434;28;20354;-24
2022/09/25 03:38:27;;;;;;;;;;;17.30;93.80;;;;;;5014048;28;19920;-24
2022/09/25 03:40:53;;;;;;;;;;;17.30;93.80;;;;;;5015270;28;19912;-24
2022/09/25 03:43:18;;;;;;;;;;;17.30;93.80;;;;;;5015584;28;20294;-24
2022/09/25 03:45:44;;;;;;;;;;;17.30;93.80;;;;;;5015385;28;20385;-24
2022/09/25 03:48:09;;;;;;;;;;;17.40;93.80;;;;;;5015393;28;19912;-24
2022/09/25 03:50:35;;;;;;;;;;;17.30;93.80;;;;;;5014833;28;20006;-24
2022/09/25 03:53:00;;;;;;;;;;;17.30;93.90;;;;;;5015135;28;19913;-24
2022/09/25 03:55:26;;;;;;;;;;;17.30;93.90;;;;;;5015476;28;19906;-24
2022/09/25 03:57:52;;;;;;;;;;;17.30;93.80;;;;;;5015083;28;20405;-24
2022/09/25 04:00:17;;;;;;;;;;;17.30;93.80;;;;;;5014951;28;19905;-24
2022/09/25 04:02:42;;;;;;;;;;;17.30;93.90;;;;;;5014998;28;20340;-24
2022/09/25 04:05:08;;;;;;;;;;;17.30;93.90;;;;;;5014965;28;19996;-24
2022/09/25 04:07:34;;;;;;;;;;;17.30;93.90;;;;;;5014858;28;19910;-24
2022/09/25 04:10:00;;;;;;;;;;;17.30;93.90;;;;;;5014934;28;19959;-24
2022/09/25 04:12:25;;;;;;;;;;;17.30;93.90;;;;;;5015139;28;20351;-24
2022/09/25 04:14:51;;;;;;;;;;;17.30;93.90;;;;;;5014943;28;19909;-24
2022/09/25 04:17:17;;;;;;;;;;;17.30;93.90;;;;;;5014732;28;19906;-24
2022/09/25 04:19:42;;;;;;;;;;;17.30;93.90;;;;;;5014597;28;19906;-23
2022/09/25 04:22:08;;;;;;;;;;;17.30;93.90;;;;;;5014458;28;19920;-24
2022/09/25 04:24:49;;;;;;;;;;;17.30;93.90;;;;;;5013391;28;19912;-24
2022/09/25 04:27:20;;;;;;;;;;;17.30;93.90;;;;;;5014607;28;19906;-24
2022/09/25 04:29:46;;;;;;;;;;;17.30;93.90;;;;;;5014449;28;19905;-24
2022/09/25 04:34:57;;;;;;;;;;;17.30;93.90;;;;;;5014708;28;19916;-24
2022/09/25 04:37:25;;;;;;;;;;;17.30;93.90;;;;;;5014536;28;19905;-24
2022/09/25 04:39:59;;;;;;;;;;;17.30;93.90;;;;;;5014255;28;20355;-23
2022/09/25 04:42:25;;;;;;;;;;;17.30;93.90;;;;;;5013258;28;19905;-24
2022/09/25 04:44:51;;;;;;;;;;;17.30;94.00;;;;;;5014114;28;20327;-24
2022/09/25 04:47:17;;;;;;;;;;;17.20;93.90;;;;;;5014162;28;19912;-24
2022/09/25 04:49:42;;;;;;;;;;;17.30;94.00;;;;;;5014193;28;19909;-24
2022/09/25 04:52:07;;;;;;;;;;;17.30;94.00;;;;;;5013921;28;19936;-24
2022/09/25 04:54:33;;;;;;;;;;;17.30;94.00;;;;;;5014008;28;20044;-24
2022/09/25 04:56:58;;;;;;;;;;;17.30;94.00;;;;;;5014071;28;20248;-24
2022/09/25 04:59:24;;;;;;;;;;;17.20;94.00;;;;;;5013792;28;19913;-24
2022/09/25 05:01:49;;;;;;;;;;;17.30;94.00;;;;;;5013981;28;19906;-23
2022/09/25 05:04:15;;;;;;;;;;;17.20;94.00;;;;;;5013876;28;20278;-24
2022/09/25 05:06:40;;;;;;;;;;;17.30;94.00;;;;;;5014217;28;19956;-24
2022/09/25 05:09:06;;;;;;;;;;;17.20;94.00;;;;;;5013644;28;19951;-24
2022/09/25 05:11:31;;;;;;;;;;;17.20;94.00;;;;;;5013651;28;19916;-23
2022/09/25 05:13:57;;;;;;;;;;;17.20;94.00;;;;;;5013584;28;20011;-24
2022/09/25 05:16:22;;;;;;;;;;;17.20;94.00;;;;;;5013781;28;19909;-24
2022/09/25 05:18:49;;;;;;;;;;;17.20;94.00;;;;;;5013723;28;19912;-24
2022/09/25 05:21:14;;;;;;;;;;;17.20;94.00;;;;;;5014100;28;19905;-23
2022/09/25 05:23:40;;;;;;;;;;;17.20;94.00;;;;;;5013623;28;19912;-23
2022/09/25 05:26:05;;;;;;;;;;;17.20;94.00;;;;;;5013657;28;20092;-23
2022/09/25 05:28:31;;;;;;;;;;;17.20;94.00;;;;;;5013337;28;19905;-23
2022/09/25 05:31:03;;;;;;;;;;;17.20;94.00;;;;;;5011921;28;19909;-24
2022/09/25 05:33:29;;;;;;;;;;;17.20;94.10;;;;;;5013316;28;20112;-23
2022/09/25 05:35:59;;;;;;;;;;;17.20;94.00;;;;;;5013428;28;19912;-23
2022/09/25 05:38:24;;;;;;;;;;;17.20;94.00;;;;;;5012016;28;19994;-24
2022/09/25 05:40:51;;;;;;;;;;;17.20;94.00;;;;;;5013145;28;20422;-23
2022/09/25 05:43:16;;;;;;;;;;;17.20;94.00;;;;;;5013207;28;19954;-24
2022/09/25 05:45:42;;;;;;;;;;;17.20;94.00;;;;;;5013305;28;19905;-23
2022/09/25 05:48:08;;;;;;;;;;;17.20;94.00;;;;;;5013303;28;19906;-23
2022/09/25 05:50:33;;;;;;;;;;;17.20;94.00;;;;;;5013062;28;19910;-23
2022/09/25 05:53:00;;;;;;;;;;;17.20;94.10;;;;;;5013364;28;20271;-23
2022/09/25 05:55:25;;;;;;;;;;;17.20;94.10;;;;;;5013251;28;19905;-23
2022/09/25 05:57:51;;;;;;;;;;;17.20;94.10;;;;;;5013232;28;20389;-23
2022/09/25 06:00:17;;;;;;;;;;;17.20;94.10;;;;;;5012804;28;19905;-24
2022/09/25 06:02:42;;;;;;;;;;;17.20;94.10;;;;;;5013201;28;20387;-24
2022/09/25 06:05:08;;;;;;;;;;;17.20;94.10;;;;;;5012981;28;19906;-24
2022/09/25 06:07:34;;;;;;;;;;;17.20;94.10;;;;;;5012896;28;19906;-24
2022/09/25 06:09:59;;;;;;;;;;;17.20;94.10;;;;;;5013153;28;19912;-24
2022/09/25 06:12:27;;;;;;;;;;;17.20;94.10;;;;;;5012532;28;20381;-23
2022/09/25 06:14:53;;;;;;;;;;;17.20;94.10;;;;;;5012811;28;20359;-24
2022/09/25 06:17:19;;;;;;;;;;;17.20;94.10;;;;;;5011412;28;19955;-24
2022/09/25 06:19:44;;;;;;;;;;;17.10;94.10;;;;;;5012632;28;19913;-24
2022/09/25 06:22:10;;;;;;;;;;;17.20;94.10;;;;;;5012584;28;19959;-24
2022/09/25 06:24:35;;;;;;;;;;;17.10;94.10;;;;;;5012763;28;19959;-24
2022/09/25 06:27:01;;;;;;;;;;;17.10;94.20;;;;;;5012535;28;20322;-24
2022/09/25 06:29:26;;;;;;;;;;;17.10;94.20;;;;;;5012574;28;19905;-24
2022/09/25 06:31:52;;;;;;;;;;;17.10;94.20;;;;;;5012531;28;19909;-24
2022/09/25 06:34:18;;;;;;;;;;;17.10;94.20;;;;;;5012613;28;19916;-24
2022/09/25 06:36:43;;;;;;;;;;;17.10;94.20;;;;;;5012989;28;19906;-24
2022/09/25 06:39:09;;;;;;;;;;;17.10;94.20;;;;;;5012476;28;19905;-23
2022/09/25 06:41:35;;;;;;;;;;;17.10;94.20;;;;;;5012459;28;19911;-23
2022/09/25 06:44:01;;;;;;;;;;;17.10;94.20;;;;;;5012784;28;19918;-24
2022/09/25 06:46:26;;;;;;;;;;;17.10;94.20;;;;;;5012713;28;20010;-24
2022/09/25 06:48:58;;;;;;;;;;;17.10;94.20;;;;;;5012538;28;19909;-23
2022/09/25 06:51:31;;;;;;;;;;;17.10;94.20;;;;;;5012381;28;20272;-24
2022/09/25 06:53:57;;;;;;;;;;;17.10;94.30;;;;;;5012892;28;19996;-24
2022/09/25 06:56:23;;;;;;;;;;;17.10;94.30;;;;;;5012477;28;19936;-24
2022/09/25 06:58:48;;;;;;;;;;;17.10;94.30;;;;;;5012514;28;19905;-24
2022/09/25 07:01:14;;;;;;;;;;;17.10;94.30;;;;;;5012313;28;19905;-24
2022/09/25 07:03:47;;;;;;;;;;;17.10;94.30;;;;;;5012458;28;20287;-24
2022/09/25 07:06:16;;;;;;;;;;;17.10;94.30;;;;;;5014368;28;19932;-24
2022/09/25 07:08:43;;;;;;;;;;;17.10;94.30;;;;;;5015882;28;19913;-24
2022/09/25 07:11:13;;;;;;;;;;;17.10;94.30;;;;;;5016119;28;19905;-24
2022/09/25 07:13:40;;;;;;;;;;;17.00;94.30;;;;;;5016240;28;19909;-24
2022/09/25 07:16:07;;;;;;;;;;;17.10;94.40;;;;;;5016368;28;20000;-24
2022/09/25 07:18:33;;;;;;;;;;;17.00;94.30;;;;;;5016263;28;20412;-23
2022/09/25 07:21:00;;;;;;;;;;;17.10;94.40;;;;;;5016012;28;19976;-24
2022/09/25 07:23:27;;;;;;;;;;;17.10;94.40;;;;;;5016045;28;19909;-23
2022/09/25 07:25:53;;;;;;;;;;;17.10;94.40;;;;;;5015953;28;20418;-23
2022/09/25 07:28:19;;;;;;;;;;;17.00;94.30;;;;;;5015872;28;19995;-23
2022/09/25 07:30:44;;;;;;;;;;;17.00;94.40;;;;;;5015846;28;19912;-23
2022/09/25 07:33:10;;;;;;;;;;;17.00;94.30;;;;;;5015812;28;20005;-23
2022/09/25 07:35:36;;;;;;;;;;;17.00;94.30;;;;;;5015757;28;20001;-23
2022/09/25 07:38:02;;;;;;;;;;;17.10;94.40;;;;;;5015781;28;19910;-23
2022/09/25 07:40:30;;;;;;;;;;;17.00;94.40;;;;;;5015443;28;20338;-23
2022/09/25 07:43:03;;;;;;;;;;;17.00;94.30;;;;;;5015643;28;19905;-23
2022/09/25 07:45:29;;;;;;;;;;;17.10;94.40;;;;;;5015686;28;19905;-23
2022/09/25 07:47:55;;;;;;;;;;;17.10;94.40;;;;;;5015661;28;19905;-23
2022/09/25 07:50:21;;;;;;;;;;;17.00;94.40;;;;;;5015051;28;20217;-23
2022/09/25 07:52:46;;;;;;;;;;;17.00;94.40;;;;;;5015346;28;19913;-23
2022/09/25 07:55:12;;;;;;;;;;;17.10;94.40;;;;;;5015444;28;19963;-23
2022/09/25 07:57:37;;;;;;;;;;;17.10;94.40;;;;;;5015554;28;19906;-23
2022/09/25 08:00:04;;;;;;;;;;;17.10;94.40;;;;;;5015131;28;19912;-23
2022/09/25 08:02:30;;;;;;;;;;;17.00;94.40;;;;;;5015450;28;19951;-23
2022/09/25 08:04:55;;;;;;;;;;;17.00;94.40;;;;;;5015367;28;20274;-23
2022/09/25 08:07:21;;;;;;;;;;;17.00;94.40;;;;;;5015565;28;19906;-23
2022/09/25 08:09:46;;;;;;;;;;;17.10;94.40;;;;;;5014958;28;19928;-23
2022/09/25 08:12:12;;;;;;;;;;;17.00;94.40;;;;;;5014980;28;19963;-23
2022/09/25 08:14:38;;;;;;;;;;;17.10;94.40;;;;;;5014959;28;19909;-23
2022/09/25 08:17:03;;;;;;;;;;;17.10;94.40;;;;;;5014739;28;19905;-23
2022/09/25 08:19:29;;;;;;;;;;;17.10;94.40;;;;;;5014683;28;19909;-23
2022/09/25 08:21:54;;;;;;;;;;;17.10;94.40;;;;;;5014688;28;19906;-23
2022/09/25 08:24:20;;;;;;;;;;;17.10;94.40;;;;;;5014975;28;20016;-23
2022/09/25 08:26:45;;;;;;;;;;;17.10;94.40;;;;;;5014729;28;19909;-23
2022/09/25 08:29:11;;;;;;;;;;;17.10;94.40;;;;;;5014634;28;19905;-23
2022/09/25 08:31:36;;;;;;;;;;;17.00;94.40;;;;;;5014587;28;19905;-23
2022/09/25 08:34:02;;;;;;;;;;;17.10;94.40;;;;;;5014419;28;19924;-23
2022/09/25 08:36:28;;;;;;;;;;;17.10;94.40;;;;;;5014640;28;19944;-23
2022/09/25 08:38:55;;;;;;;;;;;17.10;94.40;;;;;;5014357;28;20279;-23
2022/09/25 08:41:31;;;;;;;;;;;17.00;94.40;;;;;;5014411;28;19905;-23
2022/09/25 08:44:02;;;;;;;;;;;17.10;94.40;;;;;;5014417;28;19906;-23
2022/09/25 08:49:20;;;;;;;;;;;17.10;94.40;;;;;;5014268;28;20283;-23
2022/09/25 08:51:47;;;;;;;;;;;17.10;94.40;;;;;;5014114;28;19913;-23
2022/09/25 08:54:22;;;;;;;;;;;17.10;94.40;;;;;;5014266;28;19913;-23
2022/09/25 08:56:49;;;;;;;;;;;17.10;94.40;;;;;;5014384;28;19912;-23
2022/09/25 08:59:20;;;;;;;;;;;17.10;94.40;;;;;;5014197;28;19916;-23
2022/09/25 09:01:46;;;;;;;;;;;17.10;94.40;;;;;;5014258;28;19980;-23
2022/09/25 09:04:12;;;;;;;;;;;17.10;94.40;;;;;;5014307;28;20370;-23
2022/09/25 09:06:39;;;;;;;;;;;17.10;94.40;;;;;;5014327;28;19961;-23
2022/09/25 09:09:08;;;;;;;;;;;17.10;94.40;;;;;;5014096;28;19927;-23
2022/09/25 09:11:39;;;;;;;;;;;17.10;94.40;;;;;;5013816;28;20355;-24
2022/09/25 09:14:06;;;;;;;;;;;17.10;94.40;;;;;;5013898;28;19910;-23
2022/09/25 09:16:41;;;;;;;;;;;17.10;94.40;;;;;;5013941;28;19915;-23
2022/09/25 09:19:08;;;;;;;;;;;17.10;94.40;;;;;;5013898;28;19905;-23
2022/09/25 09:21:39;;;;;;;;;;;17.10;94.40;;;;;;5013844;28;19905;-23
2022/09/25 09:24:06;;;;;;;;;;;17.10;94.40;;;;;;5013707;28;19909;-24
2022/09/25 09:26:38;;;;;;;;;;;17.10;94.40;;;;;;5013639;28;19948;-23
2022/09/25 09:29:16;;;;;;;;;;;17.10;94.40;;;;;;5012979;28;19932;-23
2022/09/25 09:31:51;;;;;;;;;;;17.10;94.40;;;;;;5013387;28;20260;-24
2022/09/25 09:34:38;;;;;;;;;;;17.10;94.40;;;;;;5013912;28;20004;-23
2022/09/25 09:37:19;;;;;;;;;;;17.10;94.40;;;;;;5013687;28;19911;-24
2022/09/25 09:40:00;;;;;;;;;;;17.20;94.40;;;;;;5013429;28;20004;-24
2022/09/25 09:42:45;;;;;;;;;;;17.20;94.40;;;;;;5013783;28;20001;-23
2022/09/25 09:45:23;;;;;;;;;;;17.10;94.40;;;;;;5009340;28;19928;-24
2022/09/25 09:47:55;;;;;;;;;;;17.20;94.30;;;;;;5013469;28;19912;-23
2022/09/25 09:50:24;;;;;;;;;;;17.20;94.30;;;;;;5013133;28;19906;-23
2022/09/25 09:52:53;;;;;;;;;;;17.20;94.40;;;;;;5013280;28;20009;-24
2022/09/25 09:55:18;;;;;;;;;;;17.20;94.40;;;;;;5013682;28;19913;-24
2022/09/25 09:57:47;;;;;;;;;;;17.20;94.30;;;;;;5013559;28;20278;-24
2022/09/25 10:00:14;;;;;;;;;;;17.20;94.30;;;;;;5012953;28;20413;-24
2022/09/25 10:02:45;;;;;;;;;;;17.20;94.30;;;;;;5013262;28;20350;-24
2022/09/25 10:05:16;;;;;;;;;;;17.20;94.30;;;;;;5013159;28;20422;-23
2022/09/25 10:07:43;;;;;;;;;;;17.20;94.30;;;;;;5012910;28;19932;-24
2022/09/25 10:10:13;;;;;;;;;;;17.20;94.30;;;;;;5012785;28;19936;-24
2022/09/25 10:12:42;;;;;;;;;;;17.20;94.30;;;;;;5013331;28;19906;-24
2022/09/25 10:15:14;;;;;;;;;;;17.20;94.30;;;;;;5013073;28;19913;-23
2022/09/25 10:17:40;;;;;;;;;;;17.10;94.30;;;;;;5011821;28;19913;-24
2022/09/25 10:20:18;;;;;;;;;;;17.20;94.40;;;;;;5012598;28;19906;-23
2022/09/25 10:22:45;;;;;;;;;;;17.10;94.40;;;;;;5012910;28;19905;-23
2022/09/25 10:25:11;;;;;;;;;;;17.20;94.40;;;;;;5012836;28;20290;-23
2022/09/25 10:27:40;;;;;;;;;;;17.20;94.40;;;;;;5012990;28;19988;-24
2022/09/25 10:30:08;;;;;;;;;;;17.20;94.40;;;;;;5012618;28;19906;-23
2022/09/25 10:32:52;;;;;;;;;;;17.20;94.40;;;;;;5012661;28;20403;-24
2022/09/25 10:35:23;;;;;;;;;;;17.20;94.40;;;;;;5012706;28;20306;-23
2022/09/25 10:37:51;;;;;;;;;;;17.20;94.70;;;;;;5012874;28;19905;-23
2022/09/25 10:40:24;;;;;;;;;;;17.20;94.40;;;;;;5011661;28;19905;-23
2022/09/25 10:43:00;;;;;;;;;;;17.20;94.40;;;;;;5016976;28;19952;-23
2022/09/25 10:45:30;;;;;;;;;;;17.20;94.30;;;;;;5016991;28;19913;-24
2022/09/25 10:50:41;;;;;;;;;;;17.20;94.30;;;;;;5016596;28;20397;-23
2022/09/25 10:53:27;;;;;;;;;;;17.20;94.30;;;;;;5016804;28;19913;-24
2022/09/25 10:55:54;;;;;;;;;;;17.20;94.30;;;;;;5016420;28;19920;-24
2022/09/25 10:58:22;;;;;;;;;;;17.20;94.40;;;;;;5016553;28;19960;-24
2022/09/25 11:00:48;;;;;;;;;;;17.20;94.40;;;;;;5016370;28;19913;-24
2022/09/25 11:03:25;;;;;;;;;;;17.10;94.40;;;;;;5015210;28;19905;-24
2022/09/25 11:05:56;;;;;;;;;;;17.20;94.40;;;;;;5016444;28;20312;-23
2022/09/25 11:08:25;;;;;;;;;;;17.20;94.40;;;;;;5016281;28;19905;-23
2022/09/25 11:10:52;;;;;;;;;;;17.10;94.40;;;;;;5016373;28;19909;-23
2022/09/25 11:13:23;;;;;;;;;;;17.10;94.50;;;;;;5016185;28;19909;-23
2022/09/25 11:15:55;;;;;;;;;;;17.10;94.50;;;;;;5016174;28;19912;-24
2022/09/25 11:18:33;;;;;;;;;;;17.10;94.50;;;;;;5016287;28;20315;-24
2022/09/25 11:21:00;;;;;;;;;;;17.10;94.50;;;;;;5015720;28;20486;-24
2022/09/25 11:23:31;;;;;;;;;;;17.10;94.50;;;;;;5014772;28;20286;-24
2022/09/25 11:26:06;;;;;;;;;;;17.10;94.50;;;;;;5015945;28;19905;-24
2022/09/25 11:28:52;;;;;;;;;;;17.10;94.50;;;;;;5015720;28;19915;-23
2022/09/25 11:31:24;;;;;;;;;;;17.10;94.50;;;;;;5015879;28;20289;-24
2022/09/25 11:33:49;;;;;;;;;;;17.10;94.50;;;;;;5015633;28;19909;-24
2022/09/25 11:36:21;;;;;;;;;;;17.10;94.50;;;;;;5015894;28;19912;-24
2022/09/25 11:41:34;;;;;;;;;;;17.10;94.60;;;;;;5015595;28;19948;-23
2022/09/25 11:44:17;;;;;;;;;;;17.10;94.60;;;;;;5015735;28;20383;-24
2022/09/25 11:46:53;;;;;;;;;;;17.10;94.60;;;;;;5015606;28;19913;-24
2022/09/25 11:49:26;;;;;;;;;;;17.10;94.70;;;;;;5015347;28;19905;-24
2022/09/25 11:51:52;;;;;;;;;;;17.10;94.70;;;;;;5014472;28;19944;-24
2022/09/25 11:54:17;;;;;;;;;;;17.10;94.70;;;;;;5015377;28;19909;-24
2022/09/25 11:56:58;;;;;;;;;;;17.10;94.80;;;;;;5015448;28;20565;-24
2022/09/25 11:59:54;;;;;;;;;;;17.10;94.80;;;;;;5015120;28;20371;-24
2022/09/25 12:02:25;;;;;;;;;;;17.10;94.80;;;;;;5014979;28;19933;-24
2022/09/25 12:05:14;;;;;;;;;;;17.10;94.80;;;;;;5015469;28;19905;-24
2022/09/25 12:08:02;;;;;;;;;;;17.10;94.80;;;;;;5005122;28;19948;-24
2022/09/25 12:10:34;;;;;;;;;;;17.10;94.80;;;;;;5011851;28;20279;-24
2022/09/25 12:13:03;;;;;;;;;;;17.10;94.80;;;;;;5015122;28;20378;-24
2022/09/25 12:15:42;;;;;;;;;;;17.10;94.80;;;;;;5015025;28;19909;-24
2022/09/25 12:18:10;;;;;;;;;;;17.10;94.90;;;;;;5013743;28;20328;-24
2022/09/25 12:20:44;;;;;;;;;;;17.10;94.80;;;;;;5014790;28;19906;-23
2022/09/25 12:23:16;;;;;;;;;;;17.10;94.90;;;;;;5013523;28;20369;-23
2022/09/25 12:25:42;;;;;;;;;;;17.10;94.90;;;;;;5014845;28;19975;-24
2022/09/25 12:28:16;;;;;;;;;;;17.10;94.90;;;;;;5014829;28;19906;-23
2022/09/25 12:30:56;;;;;;;;;;;17.10;94.90;;;;;;5014540;28;19912;-24
2022/09/25 12:33:27;;;;;;;;;;;17.10;94.90;;;;;;5014678;28;19920;-23
2022/09/25 12:35:57;;;;;;;;;;;17.10;94.90;;;;;;5013699;28;19935;-23
2022/09/25 12:38:34;;;;;;;;;;;17.10;94.90;;;;;;5014422;28;19921;-23
2022/09/25 12:41:05;;;;;;;;;;;17.10;94.90;;;;;;5014363;28;19996;-24
2022/09/25 12:43:40;;;;;;;;;;;17.10;94.90;;;;;;5013326;28;19905;-24
2022/09/25 12:46:38;;;;;;;;;;;17.20;94.90;;;;;;5014347;28;20305;-24
2022/09/25 12:49:03;;;;;;;;;;;17.20;94.90;;;;;;5002172;28;20062;-24
2022/09/25 12:51:34;;;;;;;;;;;17.20;94.90;;;;;;5014240;28;19956;-24
2022/09/25 12:54:05;;;;;;;;;;;17.20;94.80;;;;;;5014688;28;19917;-23
2022/09/25 12:56:36;;;;;;;;;;;17.20;94.80;;;;;;5014256;28;19913;-24
2022/09/25 12:59:12;;;;;;;;;;;17.20;94.80;;;;;;5014339;28;19905;-23
2022/09/25 13:01:44;;;;;;;;;;;17.20;94.70;;;;;;5014165;28;19905;-23
2022/09/25 13:04:33;;;;;;;;;;;17.20;94.70;;;;;;5013460;28;19905;-23
2022/09/25 13:07:11;;;;;;;;;;;17.30;94.70;;;;;;5014212;28;19906;-24
2022/09/25 13:09:43;;;;;;;;;;;17.30;94.70;;;;;;5013923;28;19951;-24
2022/09/25 13:12:09;;;;;;;;;;;17.30;94.60;;;;;;5014091;28;20470;-23
2022/09/25 13:14:41;;;;;;;;;;;17.30;94.60;;;;;;5014199;28;19917;-24
2022/09/25 13:17:11;;;;;;;;;;;17.40;94.70;;;;;;5013899;28;20379;-23
2022/09/25 13:19:36;;;;;;;;;;;17.30;94.70;;;;;;5013909;28;19909;-24
2022/09/25 13:22:05;;;;;;;;;;;17.30;94.70;;;;;;5013763;28;20004;-24
2022/09/25 13:24:38;;;;;;;;;;;17.30;95.10;;;;;;5012667;28;19992;-24
2022/09/25 13:27:05;;;;;;;;;;;17.30;94.80;;;;;;5013776;28;19913;-23
2022/09/25 13:29:34;;;;;;;;;;;17.20;94.80;;;;;;5013644;28;19909;-23
2022/09/25 13:32:21;;;;;;;;;;;17.30;94.90;;;;;;5013464;28;19906;-24
2022/09/25 13:34:49;;;;;;;;;;;17.30;94.90;;;;;;5013510;28;19909;-23
2022/09/25 13:37:15;;;;;;;;;;;17.20;94.90;;;;;;5014029;28;19909;-23
2022/09/25 13:42:34;;;;;;;;;;;17.20;95.00;;;;;;5013793;28;20028;-23
2022/09/25 13:45:18;;;;;;;;;;;17.20;95.00;;;;;;5013663;28;19952;-23
2022/09/25 13:47:55;;;;;;;;;;;17.20;95.00;;;;;;5013481;28;19905;-23
2022/09/25 13:50:23;;;;;;;;;;;17.20;95.00;;;;;;5013128;28;19959;-23
2022/09/25 13:53:15;;;;;;;;;;;17.10;95.10;;;;;;5013196;28;20003;-23
2022/09/25 13:55:39;;;;;;;;;;;17.20;95.10;;;;;;5013200;28;19988;-23
2022/09/25 13:58:15;;;;;;;;;;;17.20;95.00;;;;;;5013486;28;19906;-23
2022/09/25 14:00:52;;;;;;;;;;;17.20;95.00;;;;;;5013063;28;20389;-23
2022/09/25 14:03:38;;;;;;;;;;;17.20;95.00;;;;;;5013052;28;19912;-23
2022/09/25 14:06:09;;;;;;;;;;;17.20;94.90;;;;;;5013167;28;20274;-23
2022/09/25 14:08:37;;;;;;;;;;;17.30;95.00;;;;;;5013096;28;19905;-23
2022/09/25 14:11:04;;;;;;;;;;;17.30;94.90;;;;;;5013061;28;20024;-23
2022/09/25 14:13:31;;;;;;;;;;;17.30;94.90;;;;;;5013069;28;19956;-23
2022/09/25 14:15:58;;;;;;;;;;;17.30;94.80;;;;;;5013041;28;19940;-24
2022/09/25 14:18:25;;;;;;;;;;;17.30;94.80;;;;;;5013028;28;20267;-24
2022/09/25 14:20:56;;;;;;;;;;;17.30;94.90;;;;;;5012817;28;19909;-24
2022/09/25 14:23:23;;;;;;;;;;;17.40;94.80;;;;;;5012905;28;19906;-24
2022/09/25 14:25:56;;;;;;;;;;;17.40;94.70;;;;;;5013038;28;19960;-24
2022/09/25 14:28:24;;;;;;;;;;;17.40;94.70;;;;;;5012847;28;19975;-24
2022/09/25 14:31:06;;;;;;;;;;;17.40;94.70;;;;;;5011635;28;19905;-24
2022/09/25 14:33:52;;;;;;;;;;;17.40;94.70;;;;;;5012921;28;20003;-24
2022/09/25 14:36:21;;;;;;;;;;;17.40;94.70;;;;;;5012461;28;19905;-24
2022/09/25 14:38:52;;;;;;;;;;;17.40;94.80;;;;;;5012483;28;20311;-24
2022/09/25 14:41:38;;;;;;;;;;;17.40;94.70;;;;;;5012487;28;20374;-24
2022/09/25 14:44:08;;;;;;;;;;;17.40;94.70;;;;;;5012725;28;19912;-24
2022/09/25 14:46:34;;;;;;;;;;;17.40;94.80;;;;;;5012644;28;19905;-24